sensor_id;sensor_type;location;lat;lon;timestamp;pressure;altitude;pressure_sealevel;temperature;humidity
6144;BME280;3103;49.492;8.474;2023-02-14T00:00:47;102465.25;;;6.13;71.77
6144;BME280;3103;49.492;8.474;2023-02-14T00:03:14;102457.53;;;6.02;71.97
6144;BME280;3103;49.492;8.474;2023-02-14T00:05:41;102451.19;;;5.94;72.00
6144;BME280;3103;49.492;8.474;2023-02-14T00:08:08;102456.38;;;6.04;71.66
6144;BME280;3103;49.492;8.474;2023-02-14T00:10:35;102462.00;;;6.35;70.99
6144;BME280;3103;49.492;8.474;2023-02-14T00:13:01;102458.13;;;6.30;70.42
6144;BME280;3103;49.492;8.474;2023-02-14T00:15:28;102459.97;;;6.29;70.78
6144;BME280;3103;49.492;8.474;2023-02-14T00:17:56;102454.34;;;6.40;69.82
6144;BME280;3103;49.492;8.474;2023-02-14T00:20:26;102456.81;;;6.25;70.45
6144;BME280;3103;49.492;8.474;2023-02-14T00:22:53;102459.91;;;6.13;71.12
6144;BME280;3103;49.492;8.474;2023-02-14T00:25:20;102457.06;;;6.06;71.34
6144;BME280;3103;49.492;8.474;2023-02-14T00:27:47;102457.91;;;6.07;71.31
6144;BME280;3103;49.492;8.474;2023-02-14T00:30:14;102452.56;;;6.07;71.40
6144;BME280;3103;49.492;8.474;2023-02-14T00:32:41;102449.66;;;5.92;72.04
6144;BME280;3103;49.492;8.474;2023-02-14T00:35:08;102455.69;;;5.76;72.50
6144;BME280;3103;49.492;8.474;2023-02-14T00:37:39;102457.69;;;5.74;72.82
6144;BME280;3103;49.492;8.474;2023-02-14T00:40:06;102460.50;;;5.64;73.53
6144;BME280;3103;49.492;8.474;2023-02-14T00:42:34;102453.31;;;5.65;72.97
6144;BME280;3103;49.492;8.474;2023-02-14T00:45:00;102448.84;;;5.65;72.89
6144;BME280;3103;49.492;8.474;2023-02-14T00:47:29;102456.41;;;5.78;72.90
6144;BME280;3103;49.492;8.474;2023-02-14T00:49:55;102451.69;;;5.72;72.64
6144;BME280;3103;49.492;8.474;2023-02-14T00:52:30;102448.44;;;5.60;73.26
6144;BME280;3103;49.492;8.474;2023-02-14T00:54:57;102448.59;;;5.59;73.40
6144;BME280;3103;49.492;8.474;2023-02-14T00:57:23;102441.41;;;5.51;73.42
6144;BME280;3103;49.492;8.474;2023-02-14T00:59:50;102443.25;;;5.51;73.84
6144;BME280;3103;49.492;8.474;2023-02-14T01:02:17;102441.50;;;5.42;73.86
6144;BME280;3103;49.492;8.474;2023-02-14T01:04:44;102447.84;;;5.66;73.57
6144;BME280;3103;49.492;8.474;2023-02-14T01:07:10;102452.78;;;5.61;73.31
6144;BME280;3103;49.492;8.474;2023-02-14T01:09:37;102455.78;;;5.58;73.35
6144;BME280;3103;49.492;8.474;2023-02-14T01:12:04;102447.41;;;5.53;73.66
6144;BME280;3103;49.492;8.474;2023-02-14T01:14:30;102450.34;;;5.68;73.57
6144;BME280;3103;49.492;8.474;2023-02-14T01:16:57;102455.28;;;5.63;73.48
6144;BME280;3103;49.492;8.474;2023-02-14T01:19:24;102454.75;;;5.51;74.38
6144;BME280;3103;49.492;8.474;2023-02-14T01:21:50;102449.25;;;5.53;73.51
6144;BME280;3103;49.492;8.474;2023-02-14T01:24:21;102450.19;;;5.44;73.89
6144;BME280;3103;49.492;8.474;2023-02-14T01:26:48;102457.81;;;5.39;73.59
6144;BME280;3103;49.492;8.474;2023-02-14T01:29:14;102454.88;;;5.24;73.77
6144;BME280;3103;49.492;8.474;2023-02-14T01:31:41;102458.16;;;5.18;74.30
6144;BME280;3103;49.492;8.474;2023-02-14T01:34:08;102453.63;;;5.10;74.62
6144;BME280;3103;49.492;8.474;2023-02-14T01:36:36;102447.22;;;5.03;74.13
6144;BME280;3103;49.492;8.474;2023-02-14T01:39:06;102444.94;;;5.08;74.80
6144;BME280;3103;49.492;8.474;2023-02-14T01:41:35;102446.22;;;5.04;74.52
6144;BME280;3103;49.492;8.474;2023-02-14T01:46:44;102454.75;;;4.90;75.04
6144;BME280;3103;49.492;8.474;2023-02-14T01:49:17;102451.72;;;4.85;74.91
6144;BME280;3103;49.492;8.474;2023-02-14T01:51:49;102451.34;;;4.80;75.11
6144;BME280;3103;49.492;8.474;2023-02-14T01:54:19;102450.91;;;4.66;74.95
6144;BME280;3103;49.492;8.474;2023-02-14T01:56:50;102454.06;;;4.52;75.54
6144;BME280;3103;49.492;8.474;2023-02-14T01:59:24;102459.78;;;4.12;77.27
6144;BME280;3103;49.492;8.474;2023-02-14T02:01:52;102473.59;;;4.15;77.34
6144;BME280;3103;49.492;8.474;2023-02-14T02:04:25;102465.44;;;4.27;77.06
6144;BME280;3103;49.492;8.474;2023-02-14T02:06:58;102471.06;;;4.24;76.84
6144;BME280;3103;49.492;8.474;2023-02-14T02:09:36;102478.06;;;4.25;77.16
6144;BME280;3103;49.492;8.474;2023-02-14T02:12:05;102481.41;;;4.27;76.90
6144;BME280;3103;49.492;8.474;2023-02-14T02:14:32;102481.09;;;4.30;76.47
6144;BME280;3103;49.492;8.474;2023-02-14T02:34:00;102462.59;;;3.73;78.65
6144;BME280;3103;49.492;8.474;2023-02-14T02:36:50;102454.38;;;3.67;78.92
6144;BME280;3103;49.492;8.474;2023-02-14T02:39:28;102455.22;;;3.57;79.01
6144;BME280;3103;49.492;8.474;2023-02-14T02:44:53;102457.66;;;3.22;80.40
6144;BME280;3103;49.492;8.474;2023-02-14T02:56:17;102454.03;;;3.23;80.62
6144;BME280;3103;49.492;8.474;2023-02-14T02:59:20;102457.41;;;3.25;80.60
6144;BME280;3103;49.492;8.474;2023-02-14T03:02:00;102453.63;;;3.27;80.59
6144;BME280;3103;49.492;8.474;2023-02-14T03:04:28;102460.06;;;3.25;80.50
6144;BME280;3103;49.492;8.474;2023-02-14T03:07:15;102459.63;;;3.30;80.30
6144;BME280;3103;49.492;8.474;2023-02-14T03:10:18;102458.25;;;3.25;80.70
6144;BME280;3103;49.492;8.474;2023-02-14T03:15:46;102464.78;;;3.31;80.69
6144;BME280;3103;49.492;8.474;2023-02-14T03:18:43;102453.78;;;3.26;81.34
6144;BME280;3103;49.492;8.474;2023-02-14T03:21:57;102464.88;;;3.49;79.57
6144;BME280;3103;49.492;8.474;2023-02-14T03:27:34;102457.13;;;3.28;79.92
6144;BME280;3103;49.492;8.474;2023-02-14T03:30:16;102460.75;;;3.27;80.16
6144;BME280;3103;49.492;8.474;2023-02-14T03:32:57;102464.84;;;3.12;81.08
6144;BME280;3103;49.492;8.474;2023-02-14T03:35:34;102458.81;;;2.90;82.02
6144;BME280;3103;49.492;8.474;2023-02-14T03:38:07;102452.53;;;2.91;82.08
6144;BME280;3103;49.492;8.474;2023-02-14T03:40:41;102461.31;;;2.92;81.99
6144;BME280;3103;49.492;8.474;2023-02-14T03:43:15;102455.03;;;3.03;82.47
6144;BME280;3103;49.492;8.474;2023-02-14T03:45:48;102459.50;;;3.12;82.15
6144;BME280;3103;49.492;8.474;2023-02-14T03:48:20;102456.84;;;3.02;82.35
6144;BME280;3103;49.492;8.474;2023-02-14T03:50:50;102455.72;;;3.24;81.61
6144;BME280;3103;49.492;8.474;2023-02-14T03:53:21;102457.66;;;3.32;80.98
6144;BME280;3103;49.492;8.474;2023-02-14T03:55:56;102454.06;;;2.84;82.59
6144;BME280;3103;49.492;8.474;2023-02-14T03:58:27;102456.84;;;3.02;82.38
6144;BME280;3103;49.492;8.474;2023-02-14T04:00:59;102458.66;;;3.21;81.92
6144;BME280;3103;49.492;8.474;2023-02-14T04:03:29;102462.47;;;2.99;82.17
6144;BME280;3103;49.492;8.474;2023-02-14T04:05:57;102460.16;;;3.33;82.08
6144;BME280;3103;49.492;8.474;2023-02-14T04:08:28;102467.59;;;3.39;81.02
6144;BME280;3103;49.492;8.474;2023-02-14T04:10:57;102465.72;;;3.49;79.46
6144;BME280;3103;49.492;8.474;2023-02-14T04:13:26;102462.28;;;3.39;79.53
6144;BME280;3103;49.492;8.474;2023-02-14T04:15:53;102468.88;;;3.16;80.42
6144;BME280;3103;49.492;8.474;2023-02-14T04:18:20;102474.72;;;3.19;80.31
6144;BME280;3103;49.492;8.474;2023-02-14T04:21:05;102480.75;;;3.02;81.55
6144;BME280;3103;49.492;8.474;2023-02-14T04:23:32;102484.66;;;2.88;81.62
6144;BME280;3103;49.492;8.474;2023-02-14T04:25:58;102487.03;;;2.91;82.51
6144;BME280;3103;49.492;8.474;2023-02-14T04:28:25;102484.53;;;2.90;82.97
6144;BME280;3103;49.492;8.474;2023-02-14T04:30:52;102483.84;;;2.97;83.16
6144;BME280;3103;49.492;8.474;2023-02-14T04:33:18;102483.56;;;2.91;83.06
6144;BME280;3103;49.492;8.474;2023-02-14T04:35:47;102482.44;;;2.74;83.57
6144;BME280;3103;49.492;8.474;2023-02-14T04:38:14;102486.75;;;2.94;82.91
6144;BME280;3103;49.492;8.474;2023-02-14T04:40:41;102473.09;;;2.99;82.14
6144;BME280;3103;49.492;8.474;2023-02-14T04:43:08;102475.31;;;3.04;82.50
6144;BME280;3103;49.492;8.474;2023-02-14T04:45:34;102467.19;;;3.05;81.89
6144;BME280;3103;49.492;8.474;2023-02-14T04:48:01;102454.91;;;2.94;82.45
6144;BME280;3103;49.492;8.474;2023-02-14T04:50:28;102473.19;;;2.78;83.17
6144;BME280;3103;49.492;8.474;2023-02-14T04:52:54;102468.88;;;2.67;84.22
6144;BME280;3103;49.492;8.474;2023-02-14T04:55:21;102462.84;;;2.65;84.54
6144;BME280;3103;49.492;8.474;2023-02-14T04:57:48;102468.75;;;2.69;84.63
6144;BME280;3103;49.492;8.474;2023-02-14T05:00:14;102471.94;;;2.63;84.72
6144;BME280;3103;49.492;8.474;2023-02-14T05:02:41;102472.94;;;2.72;84.74
6144;BME280;3103;49.492;8.474;2023-02-14T05:05:08;102471.66;;;2.56;84.79
6144;BME280;3103;49.492;8.474;2023-02-14T05:07:35;102464.94;;;2.62;85.00
6144;BME280;3103;49.492;8.474;2023-02-14T05:10:03;102455.03;;;2.64;85.06
6144;BME280;3103;49.492;8.474;2023-02-14T05:12:30;102456.97;;;2.62;85.26
6144;BME280;3103;49.492;8.474;2023-02-14T05:14:57;102460.47;;;2.62;85.03
6144;BME280;3103;49.492;8.474;2023-02-14T05:17:24;102459.34;;;2.65;85.27
6144;BME280;3103;49.492;8.474;2023-02-14T05:19:50;102456.56;;;2.57;85.92
6144;BME280;3103;49.492;8.474;2023-02-14T05:22:17;102449.16;;;2.60;85.83
6144;BME280;3103;49.492;8.474;2023-02-14T05:24:44;102459.63;;;2.62;85.56
6144;BME280;3103;49.492;8.474;2023-02-14T05:27:10;102457.53;;;2.65;85.37
6144;BME280;3103;49.492;8.474;2023-02-14T05:29:37;102459.34;;;2.65;85.75
6144;BME280;3103;49.492;8.474;2023-02-14T05:32:04;102454.31;;;2.62;85.70
6144;BME280;3103;49.492;8.474;2023-02-14T05:34:30;102454.03;;;2.65;85.73
6144;BME280;3103;49.492;8.474;2023-02-14T05:36:57;102453.50;;;2.71;85.49
6144;BME280;3103;49.492;8.474;2023-02-14T05:39:24;102454.03;;;2.65;85.59
6144;BME280;3103;49.492;8.474;2023-02-14T05:41:50;102452.81;;;2.69;86.24
6144;BME280;3103;49.492;8.474;2023-02-14T05:44:17;102455.88;;;2.64;86.08
6144;BME280;3103;49.492;8.474;2023-02-14T05:46:44;102462.56;;;2.59;86.11
6144;BME280;3103;49.492;8.474;2023-02-14T05:49:10;102463.84;;;2.55;86.61
6144;BME280;3103;49.492;8.474;2023-02-14T05:51:37;102465.75;;;2.53;86.99
6144;BME280;3103;49.492;8.474;2023-02-14T05:54:03;102457.94;;;2.51;87.12
6144;BME280;3103;49.492;8.474;2023-02-14T05:56:30;102461.44;;;2.52;87.68
6144;BME280;3103;49.492;8.474;2023-02-14T05:58:57;102462.44;;;2.70;86.61
6144;BME280;3103;49.492;8.474;2023-02-14T06:01:24;102460.19;;;2.56;86.67
6144;BME280;3103;49.492;8.474;2023-02-14T06:03:50;102469.41;;;2.81;87.28
6144;BME280;3103;49.492;8.474;2023-02-14T06:06:17;102467.47;;;3.02;86.20
6144;BME280;3103;49.492;8.474;2023-02-14T06:08:43;102465.13;;;2.99;84.90
6144;BME280;3103;49.492;8.474;2023-02-14T06:11:10;102461.47;;;3.10;85.29
6144;BME280;3103;49.492;8.474;2023-02-14T06:13:37;102465.66;;;3.12;85.15
6144;BME280;3103;49.492;8.474;2023-02-14T06:16:05;102474.03;;;3.17;85.11
6144;BME280;3103;49.492;8.474;2023-02-14T06:18:32;102474.44;;;3.22;84.01
6144;BME280;3103;49.492;8.474;2023-02-14T06:20:59;102477.81;;;3.15;84.13
6144;BME280;3103;49.492;8.474;2023-02-14T06:23:26;102479.34;;;3.08;84.74
6144;BME280;3103;49.492;8.474;2023-02-14T06:25:53;102478.09;;;3.12;84.86
6144;BME280;3103;49.492;8.474;2023-02-14T06:28:19;102476.16;;;3.04;85.03
6144;BME280;3103;49.492;8.474;2023-02-14T06:30:46;102476.69;;;3.08;85.45
6144;BME280;3103;49.492;8.474;2023-02-14T06:33:13;102471.66;;;3.05;84.40
6144;BME280;3103;49.492;8.474;2023-02-14T06:35:40;102485.66;;;3.26;85.09
6144;BME280;3103;49.492;8.474;2023-02-14T06:38:07;102486.72;;;3.52;84.88
6144;BME280;3103;49.492;8.474;2023-02-14T06:40:33;102488.84;;;3.30;83.45
6144;BME280;3103;49.492;8.474;2023-02-14T06:43:00;102491.22;;;3.33;84.74
6144;BME280;3103;49.492;8.474;2023-02-14T06:45:26;102494.59;;;3.25;84.31
6144;BME280;3103;49.492;8.474;2023-02-14T06:47:53;102493.47;;;3.27;84.92
6144;BME280;3103;49.492;8.474;2023-02-14T06:50:20;102497.38;;;3.43;83.47
6144;BME280;3103;49.492;8.474;2023-02-14T06:52:46;102499.75;;;3.36;83.29
6144;BME280;3103;49.492;8.474;2023-02-14T06:55:13;102500.00;;;3.52;83.85
6144;BME280;3103;49.492;8.474;2023-02-14T06:57:40;102504.72;;;3.68;82.08
6144;BME280;3103;49.492;8.474;2023-02-14T07:00:08;102506.13;;;3.63;82.02
6144;BME280;3103;49.492;8.474;2023-02-14T07:02:35;102508.69;;;3.35;82.99
6144;BME280;3103;49.492;8.474;2023-02-14T07:05:02;102503.22;;;3.37;83.49
6144;BME280;3103;49.492;8.474;2023-02-14T07:07:30;102497.06;;;3.36;83.63
6144;BME280;3103;49.492;8.474;2023-02-14T07:09:56;102499.19;;;3.52;82.59
6144;BME280;3103;49.492;8.474;2023-02-14T07:12:23;102502.81;;;3.41;83.37
6144;BME280;3103;49.492;8.474;2023-02-14T07:14:50;102506.03;;;3.45;82.97
6144;BME280;3103;49.492;8.474;2023-02-14T07:17:16;102510.06;;;3.49;83.90
6144;BME280;3103;49.492;8.474;2023-02-14T07:19:43;102504.50;;;3.52;83.54
6144;BME280;3103;49.492;8.474;2023-02-14T07:22:09;102505.72;;;3.67;83.67
6144;BME280;3103;49.492;8.474;2023-02-14T07:24:36;102513.25;;;3.72;83.12
6144;BME280;3103;49.492;8.474;2023-02-14T07:27:03;102511.16;;;3.66;83.08
6144;BME280;3103;49.492;8.474;2023-02-14T07:29:29;102508.28;;;3.40;84.05
6144;BME280;3103;49.492;8.474;2023-02-14T07:31:56;102513.25;;;3.72;82.63
6144;BME280;3103;49.492;8.474;2023-02-14T07:34:23;102510.25;;;3.94;79.73
6144;BME280;3103;49.492;8.474;2023-02-14T07:36:50;102514.50;;;3.77;80.36
6144;BME280;3103;49.492;8.474;2023-02-14T07:39:16;102511.06;;;3.48;81.04
6144;BME280;3103;49.492;8.474;2023-02-14T07:41:43;102507.13;;;3.62;81.36
6144;BME280;3103;49.492;8.474;2023-02-14T07:44:09;102500.09;;;3.70;81.83
6144;BME280;3103;49.492;8.474;2023-02-14T07:46:37;102511.56;;;3.80;81.72
6144;BME280;3103;49.492;8.474;2023-02-14T07:49:03;102497.28;;;3.81;80.85
6144;BME280;3103;49.492;8.474;2023-02-14T07:51:30;102490.38;;;3.88;80.77
6144;BME280;3103;49.492;8.474;2023-02-14T07:53:57;102496.69;;;3.87;80.43
6144;BME280;3103;49.492;8.474;2023-02-14T07:56:23;102499.50;;;3.86;80.89
6144;BME280;3103;49.492;8.474;2023-02-14T07:58:50;102507.09;;;3.81;80.50
6144;BME280;3103;49.492;8.474;2023-02-14T08:01:17;102504.44;;;3.71;81.46
6144;BME280;3103;49.492;8.474;2023-02-14T08:03:43;102494.19;;;3.76;81.08
6144;BME280;3103;49.492;8.474;2023-02-14T08:06:16;102500.19;;;3.88;80.92
6144;BME280;3103;49.492;8.474;2023-02-14T08:08:44;102496.97;;;3.94;80.46
6144;BME280;3103;49.492;8.474;2023-02-14T08:11:12;102493.84;;;3.99;79.57
6144;BME280;3103;49.492;8.474;2023-02-14T08:13:58;102499.09;;;3.81;80.39
6144;BME280;3103;49.492;8.474;2023-02-14T08:16:25;102494.19;;;3.86;80.21
6144;BME280;3103;49.492;8.474;2023-02-14T08:18:52;102495.75;;;4.06;79.42
6144;BME280;3103;49.492;8.474;2023-02-14T08:21:18;102502.19;;;4.13;79.02
6144;BME280;3103;49.492;8.474;2023-02-14T08:23:46;102499.38;;;4.15;79.18
6144;BME280;3103;49.492;8.474;2023-02-14T08:26:13;102493.91;;;4.16;78.84
6144;BME280;3103;49.492;8.474;2023-02-14T08:28:40;102497.06;;;4.30;80.06
6144;BME280;3103;49.492;8.474;2023-02-14T08:31:06;102501.59;;;4.20;79.73
6144;BME280;3103;49.492;8.474;2023-02-14T08:33:33;102489.88;;;4.12;79.28
6144;BME280;3103;49.492;8.474;2023-02-14T08:36:00;102505.53;;;4.15;79.36
6144;BME280;3103;49.492;8.474;2023-02-14T08:38:28;102500.06;;;4.17;79.91
6144;BME280;3103;49.492;8.474;2023-02-14T08:40:59;102503.41;;;4.19;79.64
6144;BME280;3103;49.492;8.474;2023-02-14T08:43:28;102499.88;;;3.91;79.75
6144;BME280;3103;49.492;8.474;2023-02-14T08:45:54;102502.19;;;4.13;79.99
6144;BME280;3103;49.492;8.474;2023-02-14T08:48:21;102501.44;;;4.21;79.80
6144;BME280;3103;49.492;8.474;2023-02-14T08:50:48;102511.03;;;4.41;78.75
6144;BME280;3103;49.492;8.474;2023-02-14T08:53:16;102500.81;;;4.37;78.92
6144;BME280;3103;49.492;8.474;2023-02-14T08:55:42;102504.25;;;4.20;79.55
6144;BME280;3103;49.492;8.474;2023-02-14T08:58:09;102496.34;;;4.10;80.40
6144;BME280;3103;49.492;8.474;2023-02-14T09:00:36;102506.06;;;4.19;80.66
6144;BME280;3103;49.492;8.474;2023-02-14T09:03:02;102502.28;;;4.22;80.01
6144;BME280;3103;49.492;8.474;2023-02-14T09:05:29;102504.69;;;4.15;80.26
6144;BME280;3103;49.492;8.474;2023-02-14T09:07:56;102501.19;;;4.14;81.19
6144;BME280;3103;49.492;8.474;2023-02-14T09:10:24;102507.38;;;4.15;82.29
6144;BME280;3103;49.492;8.474;2023-02-14T09:12:51;102503.06;;;4.32;82.06
6144;BME280;3103;49.492;8.474;2023-02-14T09:15:18;102503.84;;;4.24;81.12
6144;BME280;3103;49.492;8.474;2023-02-14T09:17:46;102505.34;;;3.99;82.57
6144;BME280;3103;49.492;8.474;2023-02-14T09:20:14;102501.19;;;4.14;81.74
6144;BME280;3103;49.492;8.474;2023-02-14T09:22:41;102500.56;;;4.30;80.70
6144;BME280;3103;49.492;8.474;2023-02-14T09:25:09;102510.88;;;4.43;80.49
6144;BME280;3103;49.492;8.474;2023-02-14T09:27:36;102502.16;;;4.51;79.70
6144;BME280;3103;49.492;8.474;2023-02-14T09:30:05;102504.34;;;4.55;79.80
6144;BME280;3103;49.492;8.474;2023-02-14T09:32:32;102503.09;;;4.50;79.08
6144;BME280;3103;49.492;8.474;2023-02-14T09:34:59;102500.34;;;4.69;78.88
6144;BME280;3103;49.492;8.474;2023-02-14T09:37:45;102502.84;;;4.53;79.12
6144;BME280;3103;49.492;8.474;2023-02-14T09:40:31;102498.56;;;4.60;78.84
6144;BME280;3103;49.492;8.474;2023-02-14T09:43:02;102498.56;;;4.60;78.57
6144;BME280;3103;49.492;8.474;2023-02-14T09:45:32;102496.84;;;4.68;78.06
6144;BME280;3103;49.492;8.474;2023-02-14T09:48:04;102494.22;;;4.59;78.85
6144;BME280;3103;49.492;8.474;2023-02-14T09:50:41;102496.25;;;4.47;78.85
6144;BME280;3103;49.492;8.474;2023-02-14T09:53:31;102499.94;;;4.64;78.96
6144;BME280;3103;49.492;8.474;2023-02-14T10:01:40;102485.53;;;4.39;77.94
6144;BME280;3103;49.492;8.474;2023-02-14T10:12:49;102486.91;;;4.43;76.63
6144;BME280;3103;49.492;8.474;2023-02-14T10:15:29;102487.03;;;4.24;77.84
6144;BME280;3103;49.492;8.474;2023-02-14T10:20:35;102490.03;;;4.38;79.35
6144;BME280;3103;49.492;8.474;2023-02-14T10:23:31;102489.00;;;4.67;78.33
6144;BME280;3103;49.492;8.474;2023-02-14T10:26:02;102486.56;;;4.91;77.79
6144;BME280;3103;49.492;8.474;2023-02-14T10:28:36;102479.34;;;4.84;77.22
6144;BME280;3103;49.492;8.474;2023-02-14T10:33:54;102472.41;;;4.73;77.16
6144;BME280;3103;49.492;8.474;2023-02-14T10:36:46;102469.00;;;4.81;77.06
6144;BME280;3103;49.492;8.474;2023-02-14T10:44:44;102459.94;;;4.73;77.35
6144;BME280;3103;49.492;8.474;2023-02-14T10:47:19;102464.66;;;4.80;77.88
6144;BME280;3103;49.492;8.474;2023-02-14T10:52:39;102456.38;;;4.83;77.02
6144;BME280;3103;49.492;8.474;2023-02-14T10:55:21;102454.69;;;4.82;77.18
6144;BME280;3103;49.492;8.474;2023-02-14T10:58:00;102452.88;;;4.82;76.49
6144;BME280;3103;49.492;8.474;2023-02-14T11:00:38;102445.72;;;4.83;76.49
6144;BME280;3103;49.492;8.474;2023-02-14T11:03:08;102447.69;;;4.81;76.96
6144;BME280;3103;49.492;8.474;2023-02-14T11:05:46;102445.25;;;4.87;77.36
6144;BME280;3103;49.492;8.474;2023-02-14T11:08:35;102444.19;;;4.98;76.05
6144;BME280;3103;49.492;8.474;2023-02-14T11:11:14;102448.53;;;4.99;75.86
6144;BME280;3103;49.492;8.474;2023-02-14T11:13:42;102440.53;;;4.99;76.96
6144;BME280;3103;49.492;8.474;2023-02-14T11:16:11;102440.53;;;4.99;76.64
6144;BME280;3103;49.492;8.474;2023-02-14T11:18:39;102436.47;;;5.13;76.51
6144;BME280;3103;49.492;8.474;2023-02-14T11:21:12;102441.13;;;5.11;76.46
6144;BME280;3103;49.492;8.474;2023-02-14T11:23:44;102432.97;;;5.12;75.86
6144;BME280;3103;49.492;8.474;2023-02-14T11:26:24;102431.97;;;5.13;76.16
6144;BME280;3103;49.492;8.474;2023-02-14T11:28:58;102426.34;;;5.16;77.17
6144;BME280;3103;49.492;8.474;2023-02-14T11:31:28;102422.16;;;5.14;76.80
6144;BME280;3103;49.492;8.474;2023-02-14T11:33:56;102418.09;;;5.27;76.29
6144;BME280;3103;49.492;8.474;2023-02-14T11:36:24;102418.00;;;5.37;75.79
6144;BME280;3103;49.492;8.474;2023-02-14T11:39:16;102416.41;;;5.26;75.34
6144;BME280;3103;49.492;8.474;2023-02-14T11:41:53;102411.75;;;5.28;75.18
6144;BME280;3103;49.492;8.474;2023-02-14T11:44:24;102409.34;;;5.43;75.11
6144;BME280;3103;49.492;8.474;2023-02-14T11:46:53;102412.75;;;5.53;74.20
6144;BME280;3103;49.492;8.474;2023-02-14T11:51:55;102400.03;;;5.47;74.80
6144;BME280;3103;49.492;8.474;2023-02-14T11:54:33;102395.09;;;5.26;75.47
6144;BME280;3103;49.492;8.474;2023-02-14T11:57:03;102391.53;;;5.18;76.67
6144;BME280;3103;49.492;8.474;2023-02-14T11:59:35;102393.75;;;5.22;76.15
6144;BME280;3103;49.492;8.474;2023-02-14T12:02:26;102382.09;;;5.23;75.99
6144;BME280;3103;49.492;8.474;2023-02-14T12:05:22;102380.94;;;5.26;75.61
6144;BME280;3103;49.492;8.474;2023-02-14T12:07:54;102375.34;;;5.37;75.59
6144;BME280;3103;49.492;8.474;2023-02-14T12:10:27;102378.38;;;5.16;76.13
6144;BME280;3103;49.492;8.474;2023-02-14T12:12:58;102367.59;;;5.52;76.35
6144;BME280;3103;49.492;8.474;2023-02-14T12:15:26;102372.72;;;5.79;76.00
6144;BME280;3103;49.492;8.474;2023-02-14T12:21:16;102370.06;;;5.79;75.95
6144;BME280;3103;49.492;8.474;2023-02-14T12:23:55;102358.56;;;5.87;74.68
6144;BME280;3103;49.492;8.474;2023-02-14T12:29:35;102353.13;;;5.97;73.96
6144;BME280;3103;49.492;8.474;2023-02-14T12:32:14;102355.72;;;5.80;74.51
6144;BME280;3103;49.492;8.474;2023-02-14T12:34:43;102348.81;;;5.70;74.64
6144;BME280;3103;49.492;8.474;2023-02-14T12:37:32;102345.81;;;6.07;73.87
6144;BME280;3103;49.492;8.474;2023-02-14T12:40:16;102339.47;;;6.16;73.07
6144;BME280;3103;49.492;8.474;2023-02-14T12:50:52;102341.25;;;5.91;73.94
6144;BME280;3103;49.492;8.474;2023-02-14T12:53:33;102333.94;;;5.93;73.71
6144;BME280;3103;49.492;8.474;2023-02-14T13:04:44;102316.47;;;6.31;71.87
6144;BME280;3103;49.492;8.474;2023-02-14T13:07:55;102323.31;;;6.09;72.00
6144;BME280;3103;49.492;8.474;2023-02-14T13:10:39;102314.63;;;6.07;72.25
6144;BME280;3103;49.492;8.474;2023-02-14T13:16:21;102309.78;;;6.11;71.85
6144;BME280;3103;49.492;8.474;2023-02-14T13:19:12;102315.81;;;6.13;73.06
6144;BME280;3103;49.492;8.474;2023-02-14T13:21:45;102309.13;;;6.17;72.93
6144;BME280;3103;49.492;8.474;2023-02-14T13:24:22;102308.47;;;6.31;71.69
6144;BME280;3103;49.492;8.474;2023-02-14T13:26:54;102301.78;;;6.19;71.38
6144;BME280;3103;49.492;8.474;2023-02-14T13:29:23;102300.09;;;5.93;73.04
6144;BME280;3103;49.492;8.474;2023-02-14T13:31:56;102296.28;;;6.12;72.49
6144;BME280;3103;49.492;8.474;2023-02-14T13:34:36;102301.81;;;6.27;72.01
6144;BME280;3103;49.492;8.474;2023-02-14T13:37:07;102290.28;;;6.18;72.55
6144;BME280;3103;49.492;8.474;2023-02-14T13:39:41;102281.13;;;6.29;72.95
6144;BME280;3103;49.492;8.474;2023-02-14T13:42:11;102285.09;;;6.17;73.04
6144;BME280;3103;49.492;8.474;2023-02-14T13:44:49;102280.13;;;6.38;71.69
6144;BME280;3103;49.492;8.474;2023-02-14T13:47:20;102279.78;;;6.33;72.43
6144;BME280;3103;49.492;8.474;2023-02-14T13:49:54;102276.59;;;6.30;72.17
6144;BME280;3103;49.492;8.474;2023-02-14T13:52:41;102276.78;;;6.28;71.90
6144;BME280;3103;49.492;8.474;2023-02-14T13:55:15;102287.13;;;6.31;71.65
6144;BME280;3103;49.492;8.474;2023-02-14T13:57:42;102282.44;;;6.33;74.15
6144;BME280;3103;49.492;8.474;2023-02-14T14:02:47;102280.78;;;6.48;73.94
6144;BME280;3103;49.492;8.474;2023-02-14T14:08:37;102277.13;;;6.49;72.83
6144;BME280;3103;49.492;8.474;2023-02-14T14:11:08;102267.78;;;6.37;72.56
6144;BME280;3103;49.492;8.474;2023-02-14T14:21:27;102259.88;;;6.84;69.37
6144;BME280;3103;49.492;8.474;2023-02-14T14:29:39;102255.81;;;7.05;68.88
6144;BME280;3103;49.492;8.474;2023-02-14T14:32:08;102257.81;;;7.03;69.14
6144;BME280;3103;49.492;8.474;2023-02-14T14:34:35;102257.66;;;7.04;68.58
6144;BME280;3103;49.492;8.474;2023-02-14T14:37:14;102254.69;;;6.91;69.25
6144;BME280;3103;49.492;8.474;2023-02-14T14:39:40;102248.66;;;6.89;69.53
6144;BME280;3103;49.492;8.474;2023-02-14T14:42:14;102247.63;;;7.06;68.97
6144;BME280;3103;49.492;8.474;2023-02-14T14:44:53;102247.09;;;7.11;68.75
6144;BME280;3103;49.492;8.474;2023-02-14T14:47:27;102243.13;;;7.07;67.51
6144;BME280;3103;49.492;8.474;2023-02-14T14:50:07;102250.63;;;7.03;68.73
6144;BME280;3103;49.492;8.474;2023-02-14T14:52:39;102243.47;;;7.04;68.62
6144;BME280;3103;49.492;8.474;2023-02-14T14:55:08;102246.75;;;7.14;68.25
6144;BME280;3103;49.492;8.474;2023-02-14T14:57:48;102243.25;;;7.13;68.40
6144;BME280;3103;49.492;8.474;2023-02-14T15:05:42;102227.47;;;7.27;67.52
6144;BME280;3103;49.492;8.474;2023-02-14T15:10:55;102229.88;;;7.13;68.03
6144;BME280;3103;49.492;8.474;2023-02-14T15:13:45;102216.97;;;7.25;68.62
6144;BME280;3103;49.492;8.474;2023-02-14T15:16:23;102219.63;;;7.25;67.51
6144;BME280;3103;49.492;8.474;2023-02-14T15:18:59;102212.59;;;6.85;69.08
6144;BME280;3103;49.492;8.474;2023-02-14T15:21:26;102223.63;;;6.82;69.57
6144;BME280;3103;49.492;8.474;2023-02-14T15:23:54;102216.88;;;6.39;70.24
6144;BME280;3103;49.492;8.474;2023-02-14T15:26:30;102221.72;;;6.19;71.73
6144;BME280;3103;49.492;8.474;2023-02-14T15:29:04;102211.34;;;6.32;71.61
6144;BME280;3103;49.492;8.474;2023-02-14T15:31:35;102219.88;;;6.28;71.93
6144;BME280;3103;49.492;8.474;2023-02-14T15:34:04;102208.88;;;6.31;71.54
6144;BME280;3103;49.492;8.474;2023-02-14T15:36:33;102212.03;;;6.26;71.55
6144;BME280;3103;49.492;8.474;2023-02-14T15:39:04;102211.06;;;6.35;71.84
6144;BME280;3103;49.492;8.474;2023-02-14T15:41:32;102211.22;;;6.25;72.05
6144;BME280;3103;49.492;8.474;2023-02-14T15:43:59;102211.69;;;6.29;71.67